createdAt,value
2023-04-15T00:02:41.584Z,86.80
2023-04-15T00:07:41.708Z,81.40
2023-04-15T00:12:40.022Z,71.00
2023-04-15T00:17:41.319Z,52.10
2023-04-15T00:22:39.546Z,48.90
2023-04-15T00:27:38.837Z,58.30
2023-04-15T00:32:39.107Z,41.80
2023-04-15T00:37:38.354Z,43.40
2023-04-15T00:42:36.666Z,40.90
2023-04-15T00:47:36.957Z,31.40
2023-04-15T00:52:35.284Z,29.10
2023-04-15T00:57:34.533Z,44.60
2023-04-15T01:02:33.932Z,37.10
2023-04-15T01:07:33.021Z,28.80
2023-04-15T01:12:33.340Z,17.30
2023-04-15T01:17:33.608Z,21.60
2023-04-15T01:22:30.865Z,19.20
2023-04-15T01:27:31.164Z,18.80
2023-04-15T01:32:29.488Z,15.20
2023-04-15T01:37:29.751Z,14.00
2023-04-15T01:42:29.029Z,12.40
2023-04-15T01:47:28.285Z,12.00
2023-04-15T01:52:28.591Z,9.30
2023-04-15T01:57:25.856Z,12.60
2023-04-15T02:02:25.198Z,9.80
2023-04-15T02:07:24.306Z,8.10
2023-04-15T02:12:24.594Z,6.40
2023-04-15T02:17:22.940Z,5.70
2023-04-15T02:22:22.021Z,5.50
2023-04-15T02:27:20.325Z,6.50
2023-04-15T02:32:21.612Z,6.20
2023-04-15T02:37:20.907Z,5.40
2023-04-15T02:42:20.179Z,5.20
2023-04-15T02:47:18.498Z,5.50
2023-04-15T02:52:18.755Z,4.60
2023-04-15T02:57:18.004Z,4.70
2023-04-15T03:02:17.416Z,5.10
2023-04-15T03:07:15.573Z,3.30
2023-04-15T03:12:15.902Z,3.20
2023-04-15T03:17:15.209Z,2.80
2023-04-15T03:22:13.482Z,2.50
2023-04-15T03:27:12.748Z,2.90
2023-04-15T03:32:12.027Z,2.80
2023-04-15T03:37:11.338Z,4.10
2023-04-15T03:42:10.598Z,3.60
2023-04-15T03:47:09.899Z,2.70
2023-04-15T03:52:10.191Z,3.20
2023-04-15T03:57:07.484Z,3.40
2023-04-15T04:02:08.844Z,2.20
2023-04-15T04:07:07.071Z,2.30
2023-04-15T04:12:06.341Z,3.00
2023-04-15T04:17:05.619Z,2.00
2023-04-15T04:22:04.893Z,2.30
2023-04-15T04:27:04.205Z,2.50
2023-04-15T04:32:03.473Z,1.80
2023-04-15T04:37:06.871Z,2.00
2023-04-15T04:42:01.887Z,1.90
2023-04-15T04:47:01.198Z,1.10
2023-04-15T04:52:01.488Z,1.50
2023-04-15T04:56:59.599Z,1.40
2023-04-15T05:02:00.988Z,1.60
2023-04-15T05:06:59.111Z,1.20
2023-04-15T05:11:58.379Z,1.30
2023-04-15T05:16:56.664Z,1.00
2023-04-15T05:21:55.938Z,1.30
2023-04-15T05:26:56.235Z,1.30
2023-04-15T05:31:54.502Z,1.30
2023-04-15T05:36:52.822Z,1.20
2023-04-15T05:41:53.117Z,1.20
2023-04-15T05:46:54.402Z,1.10
2023-04-15T05:51:51.691Z,1.20
2023-04-15T05:56:50.961Z,1.20
2023-04-15T06:01:51.276Z,1.20
2023-04-15T06:06:48.532Z,0.90
2023-04-15T06:11:49.819Z,1.10
2023-04-15T06:16:48.099Z,0.90
2023-04-15T06:21:47.375Z,0.80
2023-04-15T06:26:47.649Z,1.10
2023-04-15T06:31:45.995Z,0.80
2023-04-15T06:36:46.056Z,1.20
2023-04-15T06:41:45.343Z,1.10
2023-04-15T06:46:44.609Z,0.90
2023-04-15T06:51:42.918Z,1.00
2023-04-15T06:57:24.215Z,0.70
2023-04-15T07:01:41.454Z,0.90
2023-04-15T07:06:41.837Z,0.80
2023-04-15T07:11:39.895Z,1.00
2023-04-15T07:16:41.279Z,0.70
2023-04-15T07:21:39.451Z,1.10
2023-04-15T07:26:37.547Z,1.20
2023-04-15T07:31:37.836Z,0.90
2023-04-15T07:36:37.175Z,1.20
2023-04-15T07:41:35.445Z,0.90
2023-04-15T07:46:34.852Z,0.80
2023-04-15T07:51:33.953Z,0.70
2023-04-15T07:56:32.276Z,0.60
2023-04-15T08:01:32.572Z,1.00
2023-04-15T08:06:31.858Z,0.70
2023-04-15T08:11:31.183Z,0.60
2023-04-15T08:16:32.705Z,0.70
2023-04-15T08:21:31.665Z,0.80
2023-04-15T08:26:29.046Z,0.90
2023-04-15T08:31:28.109Z,1.10
2023-04-15T08:36:28.365Z,1.10
2023-04-15T08:41:26.616Z,5.80
2023-04-15T08:46:25.911Z,43.30
2023-04-15T08:51:26.147Z,100.40
2023-04-15T08:56:25.400Z,75.80
2023-04-15T09:01:23.674Z,51.50
2023-04-15T09:06:22.919Z,89.60
2023-04-15T09:11:22.217Z,120.60
2023-04-15T09:16:21.547Z,77.20
2023-04-15T09:21:20.797Z,57.60
2023-04-15T09:26:20.079Z,114.50
2023-04-15T09:31:19.386Z,149.10
2023-04-15T09:36:18.667Z,80.90
2023-04-15T09:41:17.914Z,107.20
2023-04-15T09:46:17.277Z,150.40
2023-04-15T09:51:17.394Z,107.80
2023-04-15T09:56:15.681Z,135.90
2023-04-15T10:01:15.052Z,105.70
2023-04-15T10:06:14.358Z,81.10
2023-04-15T10:11:13.612Z,77.60
2023-04-15T10:16:12.875Z,151.70
2023-04-15T10:21:12.151Z,228.60
2023-04-15T10:26:11.408Z,162.10
2023-04-15T10:31:09.693Z,115.10
2023-04-15T10:36:10.975Z,77.00
2023-04-15T10:41:09.245Z,47.60
2023-04-15T10:46:08.590Z,31.70
2023-04-15T10:51:07.845Z,118.10
2023-04-15T10:56:08.132Z,99.50
2023-04-15T11:01:06.409Z,63.10
2023-04-15T11:06:06.668Z,90.10
2023-04-15T11:11:04.911Z,41.10
2023-04-15T11:16:04.296Z,32.70
2023-04-15T11:21:05.422Z,19.90
2023-04-15T11:26:03.662Z,11.00
2023-04-15T11:31:01.950Z,8.40
2023-04-15T11:36:01.232Z,6.80
2023-04-15T11:41:00.495Z,5.30
2023-04-15T11:45:59.928Z,114.50
2023-04-15T11:51:00.058Z,66.80
2023-04-15T11:55:59.319Z,60.00
2023-04-15T12:00:57.565Z,43.60
2023-04-15T12:05:56.858Z,30.40
2023-04-15T12:10:56.146Z,11.80
2023-04-15T12:15:57.482Z,20.70
2023-04-15T12:20:54.780Z,13.00
2023-04-15T12:25:55.061Z,12.70
2023-04-15T12:30:53.359Z,10.40
2023-04-15T12:35:53.622Z,67.30
2023-04-15T12:40:51.886Z,199.30
2023-04-15T12:45:52.194Z,124.60
2023-04-15T12:50:51.448Z,71.70
2023-04-15T12:55:49.838Z,135.90
2023-04-15T13:00:48.901Z,190.00
2023-04-15T13:05:49.174Z,83.80
2023-04-15T13:10:47.460Z,110.30
2023-04-15T13:15:46.720Z,118.70
2023-04-15T13:20:46.991Z,220.50
2023-04-15T13:25:46.287Z,125.30
2023-04-15T13:30:44.563Z,106.40
2023-04-15T13:35:44.891Z,96.40
2023-04-15T13:40:43.171Z,131.50
2023-04-15T13:45:43.512Z,207.50
2023-04-15T13:50:42.041Z,154.90
2023-04-15T13:55:40.967Z,199.40
2023-04-15T14:00:40.263Z,119.50
2023-04-15T14:05:41.540Z,62.90
2023-04-15T14:10:38.815Z,64.70
2023-04-15T14:15:38.221Z,103.00
2023-04-15T14:20:37.455Z,47.80
2023-04-15T14:25:37.126Z,41.60
2023-04-15T14:30:37.183Z,36.70
2023-04-15T14:35:35.325Z,35.80
2023-04-15T14:40:33.621Z,29.70
2023-04-15T14:45:33.901Z,24.60
2023-04-15T14:50:33.369Z,28.70
2023-04-15T14:55:31.350Z,25.10
2023-04-15T15:00:31.686Z,23.00
2023-04-15T15:05:30.000Z,19.60
2023-04-15T15:10:37.880Z,19.40
2023-04-15T15:15:29.139Z,16.90
2023-04-15T15:20:28.701Z,14.00
2023-04-15T15:25:26.759Z,14.60
2023-04-15T15:30:27.960Z,12.90
2023-04-15T15:35:26.216Z,12.00
2023-04-15T15:40:26.372Z,10.50
2023-04-15T15:45:24.618Z,10.30
2023-04-15T15:50:23.865Z,12.10
2023-04-15T15:55:23.097Z,9.60
2023-04-15T16:00:22.320Z,8.00
2023-04-15T16:05:21.568Z,9.90
2023-04-15T16:10:20.719Z,7.70
2023-04-15T16:15:19.926Z,9.20
2023-04-15T16:20:18.065Z,7.50
2023-04-15T16:25:18.285Z,5.90
2023-04-15T16:30:17.399Z,6.70
2023-04-15T16:35:16.881Z,5.80
2023-04-15T16:40:14.824Z,5.20
2023-04-15T16:45:15.435Z,5.30
2023-04-15T16:50:14.484Z,5.50
2023-04-15T16:55:13.602Z,5.30
2023-04-15T17:00:12.255Z,4.10
2023-04-15T17:05:14.249Z,5.60
2023-04-15T17:10:11.678Z,5.60
2023-04-15T17:15:11.081Z,4.10
2023-04-15T17:20:12.204Z,13.70
2023-04-15T17:25:09.342Z,54.90
2023-04-15T17:30:07.727Z,57.40
2023-04-15T17:35:07.690Z,31.40
2023-04-15T17:40:08.597Z,36.70
2023-04-15T17:45:06.629Z,16.00
2023-04-15T17:50:04.774Z,13.10
2023-04-15T17:55:05.252Z,9.70
2023-04-15T18:00:04.536Z,6.80
2023-04-15T18:05:03.059Z,7.60
2023-04-15T18:10:03.178Z,9.10
2023-04-15T18:15:02.176Z,9.00
2023-04-15T18:20:03.335Z,6.60
2023-04-15T18:25:00.459Z,6.70
2023-04-15T18:29:59.925Z,72.50
2023-04-15T18:34:58.928Z,56.40
2023-04-15T18:39:58.524Z,109.80
2023-04-15T18:44:57.741Z,92.20
2023-04-15T18:49:58.032Z,109.30
2023-04-15T18:54:57.976Z,144.00
2023-04-15T18:59:55.488Z,106.00
2023-04-15T19:04:56.276Z,81.70
2023-04-15T19:09:54.952Z,99.50
2023-04-15T19:14:53.130Z,57.70
2023-04-15T19:19:53.507Z,49.10
2023-04-15T19:24:51.740Z,53.30
2023-04-15T19:29:51.056Z,91.40
2023-04-15T19:34:51.195Z,115.30
2023-04-15T19:39:50.360Z,83.60
2023-04-15T19:44:48.619Z,138.50
2023-04-15T19:49:50.349Z,146.60
2023-04-15T19:54:51.417Z,120.90
2023-04-15T19:59:47.129Z,337.40
2023-04-15T20:04:45.770Z,225.20
2023-04-15T20:09:44.707Z,140.90
2023-04-15T20:14:44.219Z,139.30
2023-04-15T20:19:45.389Z,107.50
2023-04-15T20:24:42.654Z,194.30
2023-04-15T20:29:42.155Z,153.30
2023-04-15T20:34:40.739Z,226.80
2023-04-15T20:39:41.365Z,198.90
2023-04-15T20:44:40.626Z,160.50
2023-04-15T20:49:39.630Z,124.00
2023-04-15T20:54:40.300Z,116.50
2023-04-15T20:59:37.388Z,147.80
2023-04-15T21:04:37.549Z,155.90
2023-04-15T21:09:36.491Z,119.60
2023-04-15T21:14:35.770Z,205.20
2023-04-15T21:19:35.060Z,188.30
2023-04-15T21:24:33.353Z,149.40
2023-04-15T21:29:32.651Z,126.80
2023-04-15T21:34:32.000Z,104.40
2023-04-15T21:39:31.284Z,92.70
2023-04-15T21:44:30.577Z,73.40
2023-04-15T21:49:29.857Z,78.60
2023-04-15T21:54:30.338Z,104.90
2023-04-15T21:59:28.425Z,137.90
2023-04-15T22:04:28.768Z,97.10
2023-04-15T22:09:27.025Z,137.40
2023-04-15T22:14:27.318Z,255.70
2023-04-15T22:19:27.675Z,162.40
2023-04-15T22:24:32.521Z,177.10
2023-04-15T22:29:24.029Z,143.10
2023-04-15T22:34:26.344Z,130.40
2023-04-15T22:39:21.736Z,181.00
2023-04-15T22:44:22.839Z,276.00
2023-04-15T22:49:21.117Z,203.20
2023-04-15T22:54:20.366Z,96.30
2023-04-15T22:59:21.631Z,91.30
2023-04-15T23:04:25.872Z,74.70
2023-04-15T23:09:18.122Z,96.10
2023-04-15T23:14:17.395Z,165.90
2023-04-15T23:19:17.654Z,132.00
2023-04-15T23:24:17.954Z,109.60
2023-04-15T23:29:15.232Z,114.00
2023-04-15T23:34:16.513Z,102.00
2023-04-15T23:39:14.828Z,76.60
2023-04-15T23:44:15.074Z,71.00
2023-04-15T23:49:12.394Z,75.90
2023-04-15T23:54:15.703Z,63.90
2023-04-15T23:59:15.103Z,56.80
